TimeCST,TemperatureF,Dew PointF,Humidity,Sea Level PressureIn,VisibilityMPH,Wind Direction,Wind SpeedMPH,Gust SpeedMPH,PrecipitationIn,Events,Conditions,WindDirDegrees,DateUTC
12:15 AM,21.4,19.9,94,30.10,4.0,North,13.8,21.9,N/A,,Overcast,10,2014-02-05 06:15:00
12:35 AM,20.7,18.9,93,30.11,4.0,North,12.7,17.3,N/A,,Overcast,360,2014-02-05 06:35:00
12:55 AM,20.7,19.0,93,30.12,3.0,North,8.1,-,N/A,,Overcast,360,2014-02-05 06:55:00
1:15 AM,20.7,18.9,93,30.13,10.0,North,11.5,18.4,N/A,,Mostly Cloudy,10,2014-02-05 07:15:00
1:35 AM,20.7,18.3,91,30.15,10.0,North,10.4,16.1,N/A,,Scattered Clouds,360,2014-02-05 07:35:00
1:55 AM,20.7,18.5,91,30.17,10.0,North,9.2,16.1,N/A,,Scattered Clouds,350,2014-02-05 07:55:00
2:15 AM,20.7,18.5,91,30.19,4.0,NNW,8.1,-,N/A,,Mostly Cloudy,340,2014-02-05 08:15:00
2:35 AM,20.7,18.3,91,30.20,4.0,North,12.7,16.1,N/A,,Overcast,350,2014-02-05 08:35:00
2:55 AM,20.7,18.1,90,30.22,5.0,NNW,13.8,24.2,N/A,,Mostly Cloudy,340,2014-02-05 08:55:00
3:15 AM,19.9,16.9,88,30.23,10.0,NNW,11.5,18.4,N/A,,Scattered Clouds,340,2014-02-05 09:15:00
3:35 AM,18.7,15.6,88,30.23,10.0,NNW,13.8,18.4,N/A,,Mostly Cloudy,340,2014-02-05 09:35:00
3:55 AM,18.1,14.9,87,30.25,7.0,NNW,12.7,19.6,N/A,,Mostly Cloudy,340,2014-02-05 09:55:00
4:15 AM,16.5,13.3,87,30.27,10.0,NNW,12.7,19.6,N/A,,Mostly Cloudy,340,2014-02-05 10:15:00
4:35 AM,15.6,11.8,85,30.30,10.0,NNW,10.4,23.0,N/A,,Mostly Cloudy,340,2014-02-05 10:35:00
4:55 AM,14.2,9.9,83,30.32,10.0,NNW,11.5,19.6,N/A,,Scattered Clouds,340,2014-02-05 10:55:00
5:15 AM,12.9,8.4,82,30.34,10.0,NNW,12.7,21.9,N/A,,Clear,340,2014-02-05 11:15:00
5:35 AM,11.7,6.6,80,30.35,10.0,North,15.0,21.9,N/A,,Clear,350,2014-02-05 11:35:00
5:55 AM,10.6,5.0,78,30.37,10.0,North,10.4,17.3,N/A,,Clear,350,2014-02-05 11:55:00
6:15 AM,10.4,4.8,78,30.38,10.0,North,13.8,20.7,N/A,,Clear,350,2014-02-05 12:15:00
6:35 AM,10.4,4.8,78,30.39,10.0,North,15.0,24.2,N/A,,Clear,360,2014-02-05 12:35:00
6:55 AM,10.4,4.6,78,30.41,10.0,North,10.4,20.7,N/A,,Clear,360,2014-02-05 12:55:00
7:15 AM,10.2,4.3,77,30.42,10.0,North,10.4,18.4,N/A,,Clear,360,2014-02-05 13:15:00
7:35 AM,8.4,2.5,77,30.44,10.0,North,8.1,-,N/A,,Clear,350,2014-02-05 13:35:00
7:55 AM,8.1,2.1,77,30.45,10.0,North,12.7,17.3,N/A,,Clear,360,2014-02-05 13:55:00
8:15 AM,8.1,2.1,77,30.46,10.0,North,12.7,18.4,N/A,,Clear,360,2014-02-05 14:15:00
8:35 AM,8.1,1.6,75,30.47,10.0,North,12.7,18.4,N/A,,Clear,360,2014-02-05 14:35:00
8:55 AM,8.8,1.8,73,30.48,10.0,North,11.5,16.1,N/A,,Clear,350,2014-02-05 14:55:00
9:15 AM,9.0,1.9,73,30.49,10.0,North,10.4,18.4,N/A,,Clear,350,2014-02-05 15:15:00
9:35 AM,10.4,3.2,73,30.49,10.0,North,11.5,21.9,N/A,,Clear,360,2014-02-05 15:35:00
9:55 AM,10.4,2.8,72,30.50,10.0,North,10.4,19.6,N/A,,Clear,350,2014-02-05 15:55:00
10:15 AM,10.4,2.7,71,30.51,10.0,North,8.1,-,N/A,,Clear,360,2014-02-05 16:15:00
10:35 AM,10.4,2.5,70,30.53,10.0,North,9.2,-,N/A,,Clear,350,2014-02-05 16:35:00
10:55 AM,10.4,2.3,70,30.54,10.0,NNW,11.5,-,N/A,,Clear,330,2014-02-05 16:55:00
11:15 AM,10.9,2.7,69,30.55,10.0,NNW,8.1,-,N/A,,Scattered Clouds,330,2014-02-05 17:15:00
11:35 AM,10.9,2.5,69,30.55,10.0,NNW,11.5,-,N/A,,Scattered Clouds,340,2014-02-05 17:35:00
11:55 AM,11.7,3.0,68,30.55,10.0,NW,8.1,-,N/A,,Scattered Clouds,320,2014-02-05 17:55:00
12:15 PM,12.0,3.2,68,30.54,10.0,NNW,11.5,16.1,N/A,,Scattered Clouds,330,2014-02-05 18:15:00
12:35 PM,12.9,4.3,68,30.53,10.0,NNW,11.5,-,N/A,,Clear,330,2014-02-05 18:35:00
12:55 PM,13.1,4.5,68,30.52,10.0,NNW,11.5,17.3,N/A,,Clear,340,2014-02-05 18:55:00
1:15 PM,12.7,4.1,68,30.52,10.0,NNW,11.5,-,N/A,,Clear,340,2014-02-05 19:15:00
1:35 PM,13.1,4.1,67,30.53,10.0,North,9.2,16.1,N/A,,Scattered Clouds,350,2014-02-05 19:35:00
1:55 PM,14.4,5.0,66,30.53,10.0,North,11.5,16.1,N/A,,Scattered Clouds,350,2014-02-05 19:55:00
2:15 PM,14.4,4.6,65,30.53,10.0,NNW,11.5,17.3,N/A,,Clear,330,2014-02-05 20:15:00
2:35 PM,13.5,3.9,66,30.54,10.0,NW,9.2,16.1,N/A,,Scattered Clouds,320,2014-02-05 20:35:00
2:55 PM,13.3,3.6,65,30.54,10.0,NNW,11.5,16.1,N/A,,Scattered Clouds,330,2014-02-05 20:55:00
3:15 PM,13.1,3.4,65,30.54,10.0,North,10.4,-,N/A,,Clear,350,2014-02-05 21:15:00
3:35 PM,13.1,3.0,64,30.54,10.0,NNW,10.4,-,N/A,,Clear,330,2014-02-05 21:35:00
3:55 PM,13.1,3.4,65,30.55,10.0,NNW,10.4,-,N/A,,Clear,340,2014-02-05 21:55:00
4:15 PM,13.1,3.4,65,30.56,10.0,NNW,10.4,-,N/A,,Clear,340,2014-02-05 22:15:00
4:35 PM,13.1,3.2,65,30.56,10.0,NNW,10.4,-,N/A,,Clear,340,2014-02-05 22:35:00
4:55 PM,13.1,3.4,65,30.56,10.0,NNW,9.2,-,N/A,,Clear,340,2014-02-05 22:55:00
5:15 PM,12.9,3.2,65,30.57,10.0,NNW,10.4,16.1,N/A,,Clear,340,2014-02-05 23:15:00
5:35 PM,11.8,2.3,66,30.59,10.0,NNW,6.9,-,N/A,,Clear,340,2014-02-05 23:35:00
5:55 PM,11.3,1.9,66,30.59,10.0,NNW,9.2,-,N/A,,Clear,330,2014-02-05 23:55:00
6:15 PM,10.4,1.6,68,30.59,10.0,NNW,9.2,-,N/A,,Clear,340,2014-02-06 00:15:00
6:35 PM,10.4,1.8,68,30.59,10.0,NNW,9.2,-,N/A,,Clear,340,2014-02-06 00:35:00
6:55 PM,10.4,2.1,69,30.60,10.0,North,4.6,-,N/A,,Clear,350,2014-02-06 00:55:00
7:15 PM,10.4,2.3,70,30.61,10.0,NNW,4.6,-,N/A,,Clear,330,2014-02-06 01:15:00
7:35 PM,10.4,2.7,71,30.63,10.0,NNW,4.6,-,N/A,,Clear,330,2014-02-06 01:35:00
7:55 PM,8.6,1.0,71,30.62,10.0,North,3.5,-,N/A,,Clear,350,2014-02-06 01:55:00
8:15 PM,8.1,0.7,72,30.63,10.0,NW,3.5,-,N/A,,Clear,320,2014-02-06 02:15:00
8:35 PM,7.9,1.0,74,30.64,10.0,North,4.6,-,N/A,,Clear,350,2014-02-06 02:35:00
8:55 PM,8.1,0.9,72,30.62,10.0,North,3.5,-,N/A,,Clear,360,2014-02-06 02:55:00
9:15 PM,8.1,0.7,72,30.62,10.0,North,3.5,-,N/A,,Clear,360,2014-02-06 03:15:00
9:35 PM,8.1,0.7,72,30.62,10.0,North,6.9,-,N/A,,Clear,360,2014-02-06 03:35:00
9:55 PM,8.1,0.5,71,30.61,10.0,North,8.1,-,N/A,,Clear,10,2014-02-06 03:55:00
10:15 PM,9.5,1.6,70,30.61,10.0,North,9.2,-,N/A,,Clear,10,2014-02-06 04:15:00
10:35 PM,10.4,2.1,69,30.61,10.0,North,9.2,-,N/A,,Clear,10,2014-02-06 04:35:00
10:55 PM,10.4,2.1,69,30.61,10.0,NNE,9.2,-,N/A,,Clear,20,2014-02-06 04:55:00
11:15 PM,10.4,1.9,69,30.61,10.0,NNE,9.2,16.1,N/A,,Clear,20,2014-02-06 05:15:00
11:35 PM,10.4,2.1,69,30.61,10.0,NNE,6.9,-,N/A,,Clear,20,2014-02-06 05:35:00
11:55 PM,10.4,2.1,69,30.61,10.0,NNE,8.1,-,N/A,,Clear,20,2014-02-06 05:55:00